• Join FlightAware (Why Join?)
  • Login
  • US Flag 
05:47PM EDT


 

Airport Tracker/Info


-or-


 

Live Flight TrackerFlight Track Log ✈ SKW5382 ✈ 16-Jul-2013 ✈ KMBS - KORD

Flight Track Log - Related Links

Times and Time Zones

All times are in EDT time to prevent confusion due to time zone crossing. See the SKW5382 flight status page for this flight to view local times or setup timezone preferences in your user account.

Time Position Orientation Groundspeed Altitude Reporting Facility
EDT Latitude Longitude Course Direction KTS MPH feet Rate Location/Type
08:13PM 43.4331 -84.2711 234° Southwest 270 311 8,100  Level Cleveland Center
08:14PM 43.3575 -84.2867 189° South 269 310 11,300 3,000 Climbing Cleveland Center
08:15PM 43.2659 -84.5586 240° Southwest  Level FlightAware Approximate
08:15PM 43.2811 -84.2650 168° South 268 308 14,100  Level Cleveland Center
08:16PM 43.2225 -84.6629 240° Southwest  Level FlightAware Approximate
08:16PM 43.2008 -84.2917 194° South 279 321 16,700  Level Cleveland Center
08:17PM 43.1731 -84.7615 231° Southwest  Level FlightAware Approximate
08:17PM 43.1539 -84.3969 239° Southwest 279 321 18,000  Level Cleveland Center
08:18PM 43.1211 -84.8578 236° Southwest  Level FlightAware Approximate
08:18PM 43.1317 -84.4656 246° West 335 386 19,000  Level Chicago Center
08:19PM 43.0917 -84.5881 246° West 350 403 20,500 1,440 Climbing Chicago Center
08:20PM 43.0511 -84.7136 246° West 359 413 22,000 720 Climbing Chicago Center
08:21PM 43.0108 -84.8367 246° West 357 411 22,000  Level Chicago Center
08:22PM 42.9711 -84.9519 245° Southwest 340 391 22,000  Level Chicago Center
08:23PM 42.9317 -85.0708 246° West 342 394 22,000  Level Chicago Center
08:24PM 42.8839 -85.2117 245° Southwest 342 394 22,000  Level Chicago Center
08:25PM 42.8436 -85.3308 245° Southwest 345 397 22,000  Level Chicago Center
08:26PM 42.8019 -85.4514 245° Southwest 344 396 22,000  Level Chicago Center
08:27PM 42.7725 -85.5756 252° West 352 405 22,000  Level Chicago Center
08:28PM 42.7492 -85.7047 256° West 351 404 22,000  Level Chicago Center
08:29PM 42.7258 -85.8347 256° West 352 405 22,000  Level Chicago Center
08:31PM 42.7017 -85.9642 256° West 352 405 22,000 -600 Level Chicago Center
08:32PM 42.6736 -86.1200 256° West 353 406 20,800 -1,020 Descending Chicago Center
08:33PM 42.6508 -86.2469 256° West 345 397 20,000 -420 Descending Chicago Center
08:34PM 42.6231 -86.3856 255° West 376 433 20,000 -60 Level Chicago Center
08:35PM 42.5950 -86.5361 256° West 407 468 19,900 -1,140 Descending Chicago Center
08:36PM 42.5675 -86.6878 256° West 399 459 17,700 -2,340 Descending Chicago Center
08:37PM 42.5381 -86.8169 253° West 380 437 15,100 -2,760 Descending Chicago Center
08:38PM 42.4961 -86.9669 249° West 358 412 12,000 -2,460 Descending Chicago Center
08:39PM 42.4606 -87.0903 249° West 349 402 10,000 -1,440 Descending Chicago Center
08:40PM 42.4328 -87.1894 249° West 298 343 9,100 -540 Descending Chicago Center
08:41PM 42.4014 -87.2853 246° West 281 323 9,000 -360 Descending Chicago Center
08:42PM 42.3142 -87.2836 179° South 290 334 8,400 -1,020 Descending Chicago Center
08:43PM 42.2408 -87.2883 183° South 281 323 7,000 -720 Descending Chicago Center
08:44PM 42.1508 -87.3239 196° South 282 325 7,000  Level Chicago Center
08:45PM 42.0756 -87.3486 194° South 280 322 7,000  Level Chicago Center
08:46PM 42.0064 -87.3867 202° Southwest 273 314 7,000 -480 Level Chicago Center
08:47PM 41.9853 -87.4856 254° West 274 315 6,100 -1,020 Descending Chicago Center
08:48PM 41.9842 -87.5808 269° West 264 304 5,000 -1,080 Descending Chicago Center
08:49PM 41.9844 -87.6703 270° West 221 254 3,900 -1,080 Descending Chicago Center